Saint David, AZ (85630)

7:50 PM MST on September 27, 2016 (GMT -0700)
Dragoon Mountain Ranch 3 | | Change Station

Elev 4580 ft 31.86 °N, 110.08 °W | Updated 9 seconds ago

Overcast
Overcast
59.1 °F
Feels Like 59.1 °F
N
4.0
Wind Variable Wind from NNE
Gusts 4.0 mph

Today
High -- | Low -- °F
--% Chance of Precip.
Yesterday
High -- | Low -- °F
Precip. -- in
Pressure 30.12 in
Visibility 10.0 miles
Clouds Few 500 ft
Scattered Clouds 4800 ft
Mostly Cloudy 9000 ft
Mostly Cloudy 14000 ft
Overcast 16000 ft
Dew Point 57 °F
Humidity 92%
Rainfall 0.40 in
Snow Depth Not available.
6:12 AM 6:10 PM
Waning Crescent, 8% visible
SPECI KFHU 280237Z 15008KT 10SM VCTS FEW005 SCT048 BKN090 BKN140 OVC160 16/14 A3012 RMK AO2A LTG DSNT N RAE01RAB14E37 TSB11E34
Pressure 30.12 in
Visibility 10.0 miles
Clouds Few 500 ft
Scattered Clouds 4800 ft
Mostly Cloudy 9000 ft
Mostly Cloudy 14000 ft
Overcast 16000 ft
Dew Point 57 °F
Humidity 92%
Rainfall 0.40 in
Snow Depth Not available.
6:12 AM 6:10 PM
Waning Crescent, 8% visible
SPECI KFHU 280237Z 15008KT 10SM VCTS FEW005 SCT048 BKN090 BKN140 OVC160 16/14 A3012 RMK AO2A LTG DSNT N RAE01RAB14E37 TSB11E34

10-Day Weather Forecast

Almanac

Astronomy

Sep. 27, 2016 Rise Set
Actual Time
Civil Twilight
Nautical Twilight
Astronomical Twilight
Moon
Length of Visible Light
Length of Day
Tomorrow will be .
, % of the Moon is Illuminated

Today's Extremes

State Highs State Lows

Community

WunderPhotos

Upload Photos

1,942,191 photos uploaded!

WunderBlog® & News

Nearby

Air Quality

  Air Quality AQ Index Pollutant
Not available.

Snow Depth

Station Depth Elevation

Earthquake Activity

City Distance Mag. Time & Date
Minimum magnitude displayed is 2.5.

Coastal Water Temperatures

Place Temperature

Stations

Nearby Weather Stations

Station Location Temp. Windchill Dew Point Humidity Wind Precip. Elev Updated Type
                   

Watches & Warnings

There are currently no watches in effect.